createdAt,value
2022-11-23T00:01:17.408Z,39.37
2022-11-23T00:02:54.504Z,42.03
2022-11-23T00:04:27.545Z,43.00
2022-11-23T00:06:02.370Z,39.23
2022-11-23T00:07:35.453Z,38.60
2022-11-23T00:09:09.164Z,42.53
2022-11-23T00:10:42.338Z,41.67
2022-11-23T00:12:14.386Z,39.37
2022-11-23T00:13:49.227Z,40.13
2022-11-23T00:15:22.230Z,42.03
2022-11-23T00:16:55.492Z,40.40
2022-11-23T00:18:27.572Z,39.83
2022-11-23T00:20:00.818Z,41.10
2022-11-23T00:21:34.446Z,41.77
2022-11-23T00:23:06.517Z,38.03
2022-11-23T00:24:39.737Z,37.50
2022-11-23T00:26:14.678Z,39.70
2022-11-23T00:27:48.783Z,37.13
2022-11-23T00:29:23.557Z,38.97
2022-11-23T00:30:56.749Z,40.13
2022-11-23T00:32:30.689Z,37.97
2022-11-23T00:34:04.870Z,39.00
2022-11-23T00:35:37.102Z,37.10
2022-11-23T00:37:10.264Z,39.43
2022-11-23T00:38:44.961Z,40.50
2022-11-23T00:40:17.232Z,41.67
2022-11-23T00:41:50.374Z,39.63
2022-11-23T00:43:22.416Z,40.80
2022-11-23T00:44:56.851Z,40.40
2022-11-23T00:46:30.292Z,38.30
2022-11-23T00:48:02.593Z,42.57
2022-11-23T00:49:35.638Z,38.23
2022-11-23T00:51:09.892Z,41.80
2022-11-23T00:52:42.924Z,40.90
2022-11-23T00:54:16.209Z,37.27
2022-11-23T00:55:52.713Z,40.10
2022-11-23T00:57:26.087Z,41.10
2022-11-23T00:59:01.193Z,43.90
2022-11-23T01:00:35.621Z,43.77
2022-11-23T01:02:09.955Z,41.60
2022-11-23T01:03:45.768Z,39.77
2022-11-23T01:05:18.998Z,41.47
2022-11-23T01:06:56.191Z,36.73
2022-11-23T01:08:29.241Z,38.70
2022-11-23T01:10:02.295Z,39.63
2022-11-23T01:11:35.685Z,41.50
2022-11-23T01:13:08.734Z,40.47
2022-11-23T01:14:43.346Z,42.00
2022-11-23T01:16:24.293Z,41.27
2022-11-23T01:17:56.639Z,39.90
2022-11-23T01:19:30.752Z,35.00
2022-11-23T01:21:04.087Z,39.70
2022-11-23T01:22:37.287Z,39.13
2022-11-23T01:24:12.068Z,39.57
2022-11-23T01:25:45.197Z,38.37
2022-11-23T01:27:18.274Z,39.83
2022-11-23T01:28:51.949Z,37.50
2022-11-23T01:30:24.706Z,37.43
2022-11-23T01:31:59.258Z,38.67
2022-11-23T01:33:32.309Z,40.40
2022-11-23T01:35:05.725Z,38.73
2022-11-23T01:36:39.040Z,38.63
2022-11-23T01:38:17.847Z,37.13
2022-11-23T01:39:51.349Z,44.40
2022-11-23T01:41:26.526Z,37.07
2022-11-23T01:43:01.029Z,36.93
2022-11-23T01:44:36.655Z,40.37
2022-11-23T01:46:10.153Z,43.63
2022-11-23T01:47:43.705Z,42.23
2022-11-23T01:49:17.282Z,39.03
2022-11-23T01:50:52.817Z,42.00
2022-11-23T01:52:28.099Z,38.80
2022-11-23T01:54:04.775Z,38.47
2022-11-23T01:55:38.622Z,39.10
2022-11-23T01:57:15.998Z,36.67
2022-11-23T01:58:55.069Z,41.63
2022-11-23T02:00:27.702Z,40.80
2022-11-23T02:02:01.987Z,38.37
2022-11-23T02:03:38.566Z,40.43
2022-11-23T02:05:18.170Z,42.00
2022-11-23T02:06:52.183Z,41.73
2022-11-23T02:08:27.160Z,41.75
2022-11-23T02:10:00.796Z,40.05
2022-11-23T02:11:34.168Z,43.57
2022-11-23T02:13:11.357Z,42.77
2022-11-23T02:14:44.856Z,39.63
2022-11-23T02:16:19.250Z,38.93
2022-11-23T02:17:52.792Z,43.78
2022-11-23T02:19:37.839Z,39.03
2022-11-23T02:21:11.289Z,40.23
2022-11-23T02:22:53.342Z,40.67
2022-11-23T02:24:32.418Z,37.23
2022-11-23T02:26:10.687Z,38.13
2022-11-23T02:27:47.097Z,42.13
2022-11-23T02:29:24.313Z,37.75
2022-11-23T02:30:57.751Z,40.83
2022-11-23T02:32:31.817Z,39.13
2022-11-23T02:34:04.931Z,41.87
2022-11-23T02:35:48.862Z,38.33
2022-11-23T02:37:21.953Z,43.90
2022-11-23T02:39:02.519Z,42.57
2022-11-23T02:40:36.953Z,38.87
2022-11-23T02:42:11.780Z,37.83
2022-11-23T02:43:43.957Z,43.93
2022-11-23T02:45:24.029Z,40.20
2022-11-23T02:46:56.365Z,42.08
2022-11-23T02:48:29.755Z,42.40
2022-11-23T02:50:02.779Z,38.55
2022-11-23T02:51:35.824Z,37.57
2022-11-23T02:53:09.200Z,40.40
2022-11-23T02:54:42.300Z,40.03
2022-11-23T02:56:15.341Z,40.13
2022-11-23T02:57:49.805Z,43.80
2022-11-23T02:59:22.995Z,42.10
2022-11-23T03:00:57.800Z,40.70
2022-11-23T03:02:30.936Z,39.77
2022-11-23T03:04:04.134Z,43.35
2022-11-23T03:05:37.219Z,46.25
2022-11-23T03:07:11.205Z,41.23
2022-11-23T03:08:44.664Z,42.97
2022-11-23T03:10:17.900Z,41.60
2022-11-23T03:11:51.036Z,40.77
2022-11-23T03:13:25.494Z,45.37
2022-11-23T03:14:58.719Z,42.37
2022-11-23T03:16:31.770Z,47.78
2022-11-23T03:18:05.997Z,43.45
2022-11-23T03:19:39.622Z,45.47
2022-11-23T03:21:12.880Z,42.27
2022-11-23T03:22:46.287Z,41.27
2022-11-23T03:24:19.842Z,40.60
2022-11-23T03:25:57.311Z,45.08
2022-11-23T03:27:33.584Z,38.97
2022-11-23T03:29:08.479Z,39.60
2022-11-23T03:30:44.117Z,41.60
2022-11-23T03:32:17.318Z,40.90
2022-11-23T03:33:53.715Z,41.90
2022-11-23T03:35:27.267Z,43.67
2022-11-23T03:37:20.316Z,43.13
2022-11-23T03:38:54.074Z,40.80
2022-11-23T03:41:05.560Z,40.83
2022-11-23T03:42:59.028Z,38.83
2022-11-23T03:44:33.550Z,38.73
2022-11-23T03:46:05.810Z,40.93
2022-11-23T03:47:38.979Z,38.80
2022-11-23T03:49:11.098Z,41.27
2022-11-23T03:50:45.472Z,44.63
2022-11-23T03:52:18.648Z,40.27
2022-11-23T03:53:52.353Z,36.33
2022-11-23T03:55:25.578Z,43.40
2022-11-23T03:56:58.996Z,38.63
2022-11-23T03:58:32.123Z,46.78
2022-11-23T04:00:08.416Z,42.33
2022-11-23T04:01:46.413Z,39.67
2022-11-23T04:03:26.544Z,39.40
2022-11-23T04:05:19.692Z,43.27
2022-11-23T04:07:25.213Z,38.93
2022-11-23T04:09:02.522Z,43.17
2022-11-23T04:10:57.799Z,38.53
2022-11-23T04:12:40.797Z,39.27
2022-11-23T04:14:14.189Z,41.03
2022-11-23T04:15:48.655Z,41.43
2022-11-23T04:17:21.702Z,46.03
2022-11-23T04:18:55.059Z,44.97
2022-11-23T04:20:28.790Z,44.03
2022-11-23T04:22:01.952Z,43.90
2022-11-23T04:23:40.648Z,44.42
2022-11-23T04:25:15.585Z,45.00
2022-11-23T04:26:48.717Z,45.87
2022-11-23T04:28:21.836Z,40.63
2022-11-23T04:29:55.493Z,43.85
2022-11-23T04:31:30.701Z,40.00
2022-11-23T04:33:16.298Z,43.90
2022-11-23T04:34:50.441Z,43.97
2022-11-23T04:36:23.511Z,45.13
2022-11-23T04:37:56.603Z,44.03
2022-11-23T04:39:33.013Z,46.43
2022-11-23T04:41:26.715Z,39.93
2022-11-23T04:43:01.887Z,42.80
2022-11-23T04:44:38.300Z,45.07
2022-11-23T04:46:13.311Z,41.47
2022-11-23T04:47:47.893Z,38.43
2022-11-23T04:49:21.760Z,41.63
2022-11-23T04:50:55.961Z,40.40
2022-11-23T04:52:35.919Z,42.23
2022-11-23T04:54:12.098Z,45.90
2022-11-23T04:55:53.024Z,44.70
2022-11-23T04:57:26.160Z,42.27
2022-11-23T04:58:59.446Z,47.93
2022-11-23T05:00:32.869Z,46.07
2022-11-23T05:02:07.017Z,45.77
2022-11-23T05:03:44.133Z,48.37
2022-11-23T05:05:18.802Z,40.20
2022-11-23T05:06:51.893Z,41.70
2022-11-23T05:08:25.021Z,39.03
2022-11-23T05:10:21.093Z,40.73
2022-11-23T05:11:54.584Z,45.30
2022-11-23T05:13:27.674Z,45.80
2022-11-23T05:15:00.941Z,41.73
2022-11-23T05:16:40.346Z,43.77
2022-11-23T05:18:13.898Z,40.43
2022-11-23T05:19:47.490Z,41.87
2022-11-23T05:21:20.963Z,45.50
2022-11-23T05:22:55.112Z,43.10
2022-11-23T05:24:30.705Z,44.77
2022-11-23T05:26:11.401Z,45.07
2022-11-23T05:27:44.106Z,44.53
2022-11-23T05:29:17.857Z,44.60
2022-11-23T05:30:51.951Z,49.07
2022-11-23T05:32:25.366Z,49.20
2022-11-23T05:33:59.115Z,48.70
2022-11-23T05:35:44.267Z,46.97
2022-11-23T05:37:17.973Z,47.30
2022-11-23T05:38:58.710Z,47.97
2022-11-23T05:40:36.878Z,46.20
2022-11-23T05:42:10.863Z,47.93
2022-11-23T05:43:47.437Z,48.23
2022-11-23T05:45:26.360Z,45.87
2022-11-23T05:47:02.009Z,46.87
2022-11-23T05:48:37.930Z,47.33
2022-11-23T05:50:15.662Z,46.03
2022-11-23T05:51:52.290Z,51.10
2022-11-23T05:53:25.457Z,51.43
2022-11-23T05:55:05.036Z,48.17
2022-11-23T05:56:40.392Z,46.00
2022-11-23T05:58:21.280Z,46.57
2022-11-23T05:59:54.646Z,45.10
2022-11-23T06:01:33.939Z,48.13
2022-11-23T06:03:08.640Z,48.08
2022-11-23T06:04:40.723Z,44.33
2022-11-23T06:06:17.357Z,46.70
2022-11-23T06:07:55.010Z,46.43
2022-11-23T06:09:33.031Z,45.05
2022-11-23T06:11:12.056Z,47.07
2022-11-23T06:12:45.722Z,43.42
2022-11-23T06:14:21.278Z,45.63
2022-11-23T06:15:54.554Z,45.70
2022-11-23T06:17:34.169Z,44.03
2022-11-23T06:19:10.139Z,46.27
2022-11-23T06:20:46.007Z,49.63
2022-11-23T06:22:19.108Z,51.47
2022-11-23T06:24:07.338Z,47.20
2022-11-23T06:25:40.932Z,46.30
2022-11-23T06:27:22.104Z,48.70
2022-11-23T06:28:56.888Z,49.92
2022-11-23T06:30:30.865Z,44.33
2022-11-23T06:32:09.447Z,45.93
2022-11-23T06:33:42.594Z,50.63
2022-11-23T06:35:16.648Z,47.63
2022-11-23T06:36:50.629Z,48.53
2022-11-23T06:38:23.836Z,45.00
2022-11-23T06:40:07.105Z,43.85
2022-11-23T06:41:40.569Z,43.60
2022-11-23T06:43:13.627Z,47.78
2022-11-23T06:44:49.620Z,43.07
2022-11-23T06:46:22.773Z,47.13
2022-11-23T06:47:57.419Z,46.43
2022-11-23T06:49:31.227Z,47.70
2022-11-23T06:51:19.280Z,44.83
2022-11-23T06:52:57.747Z,47.27
2022-11-23T06:54:42.392Z,42.33
2022-11-23T06:56:16.965Z,49.78
2022-11-23T06:57:50.139Z,48.10
2022-11-23T06:59:23.543Z,44.57
2022-11-23T07:01:01.840Z,44.83
2022-11-23T07:02:38.247Z,47.77
2022-11-23T07:04:11.577Z,45.43
2022-11-23T07:05:52.559Z,42.93
2022-11-23T07:07:28.308Z,46.88
2022-11-23T07:09:14.284Z,46.07
2022-11-23T07:11:07.661Z,43.73
2022-11-23T07:12:42.129Z,44.57
2022-11-23T07:14:15.663Z,42.23
2022-11-23T07:15:52.322Z,42.47
2022-11-23T07:17:25.460Z,42.93
2022-11-23T07:18:59.361Z,43.87
2022-11-23T07:20:32.525Z,40.90
2022-11-23T07:22:05.658Z,42.60
2022-11-23T07:23:41.452Z,36.63
2022-11-23T07:25:18.347Z,41.93
2022-11-23T07:26:52.301Z,40.43
2022-11-23T07:28:27.235Z,44.60
2022-11-23T07:30:00.364Z,44.20
2022-11-23T07:31:33.440Z,40.77
2022-11-23T07:33:09.343Z,40.03
2022-11-23T07:34:43.485Z,39.20
2022-11-23T07:36:16.610Z,39.77
2022-11-23T07:37:51.524Z,40.57
2022-11-23T07:39:41.868Z,43.47
2022-11-23T07:41:17.936Z,39.33
2022-11-23T07:43:01.856Z,36.77
2022-11-23T07:44:36.445Z,36.90
2022-11-23T07:46:11.581Z,35.83
2022-11-23T07:47:44.790Z,36.37
2022-11-23T07:49:17.874Z,38.47
2022-11-23T07:50:53.842Z,37.47
2022-11-23T07:52:27.375Z,37.23
2022-11-23T07:54:00.466Z,38.87
2022-11-23T07:55:34.155Z,40.03
2022-11-23T07:57:07.204Z,37.57
2022-11-23T07:58:40.306Z,39.57
2022-11-23T08:00:16.256Z,36.07
2022-11-23T08:01:53.105Z,36.00
2022-11-23T08:03:29.483Z,41.50
2022-11-23T08:05:03.168Z,40.03
2022-11-23T08:06:36.241Z,38.83
2022-11-23T08:08:09.427Z,39.87
2022-11-23T08:09:42.766Z,37.03
2022-11-23T08:11:18.299Z,34.97
2022-11-23T08:12:51.396Z,42.10
2022-11-23T08:14:24.815Z,37.00
2022-11-23T08:15:59.754Z,37.73
2022-11-23T08:17:32.988Z,40.43
2022-11-23T08:19:06.193Z,35.10
2022-11-23T08:20:39.299Z,33.17
2022-11-23T08:22:15.597Z,35.03
2022-11-23T08:23:49.322Z,34.90
2022-11-23T08:25:22.439Z,35.00
2022-11-23T08:26:55.560Z,36.97
2022-11-23T08:28:28.620Z,36.40
2022-11-23T08:30:01.734Z,36.57
2022-11-23T08:31:36.177Z,37.10
2022-11-23T08:33:10.412Z,35.30
2022-11-23T08:34:45.006Z,36.40
2022-11-23T08:36:18.346Z,34.30
2022-11-23T08:37:51.422Z,35.63
2022-11-23T08:39:24.622Z,38.33
2022-11-23T08:41:00.095Z,35.17
2022-11-23T08:42:33.185Z,35.63
2022-11-23T08:44:08.394Z,38.23
2022-11-23T08:45:41.464Z,36.30
2022-11-23T08:47:15.917Z,33.70
2022-11-23T08:48:49.071Z,35.90
2022-11-23T08:50:22.660Z,35.33
2022-11-23T08:51:55.812Z,37.70
2022-11-23T08:53:29.078Z,35.23
2022-11-23T08:55:02.426Z,34.13
2022-11-23T08:56:35.524Z,33.33
2022-11-23T08:58:13.106Z,32.07
2022-11-23T08:59:46.748Z,35.40
2022-11-23T09:01:20.097Z,32.50
2022-11-23T09:02:55.115Z,34.90
2022-11-23T09:04:30.842Z,34.37
2022-11-23T09:06:04.034Z,31.60
2022-11-23T09:07:37.240Z,37.53
2022-11-23T09:09:10.983Z,37.60
2022-11-23T09:10:44.790Z,32.03
2022-11-23T09:12:17.891Z,37.67
2022-11-23T09:13:51.001Z,35.77
2022-11-23T09:15:24.276Z,34.93
2022-11-23T09:16:57.394Z,33.73
2022-11-23T09:18:33.136Z,36.00
2022-11-23T09:20:07.395Z,38.33
2022-11-23T09:21:42.263Z,35.43
2022-11-23T09:23:15.364Z,35.00
2022-11-23T09:24:48.456Z,34.23
2022-11-23T09:26:21.579Z,33.47
2022-11-23T09:27:59.251Z,36.70
2022-11-23T09:29:32.441Z,37.50
2022-11-23T09:31:06.281Z,32.20
2022-11-23T09:32:39.587Z,35.37
2022-11-23T09:34:14.902Z,35.40
2022-11-23T09:35:47.990Z,33.03
2022-11-23T09:37:21.133Z,33.63
2022-11-23T09:38:56.932Z,30.40
2022-11-23T09:40:32.894Z,34.27
2022-11-23T09:42:22.408Z,30.20
2022-11-23T09:44:03.326Z,35.20
2022-11-23T09:45:41.556Z,28.33
2022-11-23T09:47:31.579Z,31.87
2022-11-23T09:49:16.787Z,34.93
2022-11-23T09:50:54.004Z,31.87
2022-11-23T09:52:27.462Z,32.27
2022-11-23T09:54:04.108Z,33.47
2022-11-23T09:55:42.057Z,30.60
2022-11-23T09:57:19.262Z,30.77
2022-11-23T09:58:55.875Z,30.37
2022-11-23T10:00:31.116Z,29.13
2022-11-23T10:02:04.633Z,32.17
2022-11-23T10:03:44.042Z,28.07
2022-11-23T10:05:24.752Z,31.50
2022-11-23T10:07:04.823Z,31.70
2022-11-23T10:08:47.485Z,31.00
2022-11-23T10:10:29.041Z,29.50
2022-11-23T10:12:07.618Z,27.03
2022-11-23T10:13:46.270Z,29.47
2022-11-23T10:15:24.470Z,30.27
2022-11-23T10:17:04.431Z,27.20
2022-11-23T10:18:47.468Z,30.87
2022-11-23T10:20:47.577Z,27.30
2022-11-23T10:22:27.539Z,30.97
2022-11-23T10:24:12.512Z,30.57
2022-11-23T10:25:49.649Z,29.93
2022-11-23T10:27:25.069Z,30.50
2022-11-23T10:29:03.801Z,29.50
2022-11-23T10:30:37.436Z,27.87
2022-11-23T10:32:23.870Z,28.40
2022-11-23T10:34:03.970Z,25.40
2022-11-23T10:35:39.103Z,27.00
2022-11-23T10:37:14.267Z,25.57
2022-11-23T10:38:51.077Z,26.03
2022-11-23T10:40:26.975Z,27.23
2022-11-23T10:42:04.262Z,24.73
2022-11-23T10:43:42.820Z,23.87
2022-11-23T10:45:24.381Z,26.93
2022-11-23T10:46:57.711Z,25.83
2022-11-23T10:48:36.187Z,28.40
2022-11-23T10:50:24.657Z,29.00
2022-11-23T10:52:03.577Z,28.73
2022-11-23T10:53:37.230Z,26.37
2022-11-23T10:55:15.393Z,28.33
2022-11-23T10:56:50.311Z,26.53
2022-11-23T10:58:28.985Z,28.23
2022-11-23T11:00:04.999Z,25.73
2022-11-23T11:01:38.138Z,25.80
2022-11-23T11:03:25.199Z,25.77
2022-11-23T11:05:40.210Z,28.90
2022-11-23T11:07:25.664Z,27.93
2022-11-23T11:09:03.457Z,26.73
2022-11-23T11:10:40.497Z,23.40
2022-11-23T11:12:17.990Z,24.37
2022-11-23T11:13:51.564Z,24.10
2022-11-23T11:15:24.635Z,22.20
2022-11-23T11:16:59.007Z,21.20
2022-11-23T11:18:35.036Z,21.23
2022-11-23T11:20:31.338Z,24.77
2022-11-23T11:22:25.550Z,21.43
2022-11-23T11:24:03.583Z,22.03
2022-11-23T11:25:38.871Z,20.77
2022-11-23T11:27:16.823Z,22.23
2022-11-23T11:28:51.544Z,23.73
2022-11-23T11:30:26.476Z,21.10
2022-11-23T11:32:01.894Z,20.97
2022-11-23T11:33:41.547Z,23.07
2022-11-23T11:35:21.046Z,22.87
2022-11-23T11:37:03.611Z,23.37
2022-11-23T11:38:38.858Z,21.37
2022-11-23T11:40:20.972Z,22.77
2022-11-23T11:41:57.101Z,23.03
2022-11-23T11:43:39.652Z,25.23
2022-11-23T11:45:19.420Z,25.50
2022-11-23T11:46:58.801Z,24.63
2022-11-23T11:48:35.290Z,27.50
2022-11-23T11:50:21.194Z,28.47
2022-11-23T11:52:00.196Z,23.33
2022-11-23T11:53:40.558Z,24.93
2022-11-23T11:55:19.747Z,27.40
2022-11-23T11:56:55.153Z,30.03
2022-11-23T11:58:28.388Z,28.83
2022-11-23T12:00:06.298Z,27.10
2022-11-23T12:01:44.820Z,28.03
2022-11-23T12:03:30.787Z,27.30
2022-11-23T12:05:13.290Z,26.60
2022-11-23T12:06:52.828Z,32.33
2022-11-23T12:08:34.188Z,28.63
2022-11-23T12:10:13.430Z,29.20
2022-11-23T12:11:47.945Z,28.13
2022-11-23T12:13:24.029Z,28.57
2022-11-23T12:14:58.246Z,31.47
2022-11-23T12:16:40.921Z,31.87
2022-11-23T12:18:27.018Z,31.40
2022-11-23T12:20:08.834Z,25.20
2022-11-23T12:22:03.736Z,23.20
2022-11-23T12:23:51.409Z,28.87
2022-11-23T12:25:33.245Z,25.87
2022-11-23T12:27:17.242Z,26.60
2022-11-23T12:29:15.941Z,24.87
2022-11-23T12:30:55.437Z,28.37
2022-11-23T12:32:42.000Z,26.33
2022-11-23T12:34:37.996Z,32.90
2022-11-23T12:36:25.925Z,26.30
2022-11-23T12:38:09.055Z,27.07
2022-11-23T12:40:19.623Z,27.57
2022-11-23T12:41:59.816Z,28.13
2022-11-23T12:43:45.871Z,27.93
2022-11-23T12:45:34.808Z,29.30
2022-11-23T12:47:17.697Z,30.53
2022-11-23T12:49:02.344Z,27.07
2022-11-23T12:50:41.474Z,27.57
2022-11-23T12:52:31.831Z,29.73
2022-11-23T12:54:19.379Z,27.30
2022-11-23T12:56:01.747Z,33.57
2022-11-23T12:57:39.295Z,29.57
2022-11-23T12:59:15.162Z,31.77
2022-11-23T13:00:52.554Z,31.07
2022-11-23T13:02:54.347Z,33.17
2022-11-23T13:04:59.059Z,33.67
2022-11-23T13:09:33.499Z,32.60
2022-11-23T13:11:19.816Z,29.70
2022-11-23T13:13:15.375Z,31.47
2022-11-23T13:15:01.484Z,33.07
2022-11-23T13:16:58.025Z,29.77
2022-11-23T13:18:44.537Z,32.93
2022-11-23T13:20:41.961Z,34.87
2022-11-23T13:22:19.619Z,33.77
2022-11-23T13:23:52.990Z,32.97
2022-11-23T13:25:28.085Z,35.07
2022-11-23T13:27:42.864Z,36.07
2022-11-23T13:29:58.613Z,31.67
2022-11-23T13:31:33.618Z,35.73
2022-11-23T13:33:30.429Z,34.73
2022-11-23T13:35:44.629Z,32.43
2022-11-23T13:37:24.115Z,30.63
2022-11-23T13:38:57.885Z,34.13
2022-11-23T13:40:32.659Z,38.30
2022-11-23T13:42:07.122Z,32.67
2022-11-23T13:43:40.659Z,30.60
2022-11-23T13:45:34.271Z,36.00
2022-11-23T13:47:19.542Z,33.27
2022-11-23T13:48:57.889Z,34.43
2022-11-23T13:50:31.468Z,35.93
2022-11-23T13:52:28.470Z,32.73
2022-11-23T13:54:04.784Z,37.33
2022-11-23T13:55:39.640Z,36.50
2022-11-23T13:57:14.831Z,36.83
2022-11-23T13:58:55.740Z,33.13
2022-11-23T14:00:50.628Z,31.97
2022-11-23T14:02:29.003Z,35.97
2022-11-23T14:04:21.251Z,35.67
2022-11-23T14:06:00.065Z,39.80
2022-11-23T14:07:43.147Z,40.10
2022-11-23T14:09:22.599Z,38.27
2022-11-23T14:10:56.019Z,31.43
2022-11-23T14:12:36.166Z,35.73
2022-11-23T14:14:18.199Z,40.03
2022-11-23T14:15:58.686Z,36.17
2022-11-23T14:18:07.829Z,34.60
2022-11-23T14:19:50.124Z,31.73
2022-11-23T14:21:32.644Z,38.20
2022-11-23T14:23:25.239Z,40.23
2022-11-23T14:25:19.933Z,35.10
2022-11-23T14:27:17.776Z,34.27
2022-11-23T14:29:21.889Z,41.83
2022-11-23T14:31:13.572Z,34.80
2022-11-23T14:33:03.301Z,33.93
2022-11-23T14:34:45.792Z,36.70
2022-11-23T14:36:31.615Z,38.50
2022-11-23T14:38:39.061Z,35.20
2022-11-23T14:40:21.494Z,31.57
2022-11-23T14:41:59.796Z,32.13
2022-11-23T14:43:34.938Z,109.40
2022-11-23T14:45:14.323Z,50.20
2022-11-23T14:47:06.340Z,53.93
2022-11-23T14:48:39.456Z,41.33
2022-11-23T14:50:23.991Z,53.93
2022-11-23T14:51:57.600Z,36.37
2022-11-23T14:53:33.536Z,33.33
2022-11-23T14:55:07.653Z,34.13
2022-11-23T14:56:45.308Z,38.57
2022-11-23T14:58:18.593Z,44.20
2022-11-23T14:59:55.505Z,54.50
2022-11-23T15:01:29.193Z,45.40
2022-11-23T15:03:34.318Z,33.00
2022-11-23T15:05:08.688Z,32.67
2022-11-23T15:06:47.757Z,35.13
2022-11-23T15:08:25.882Z,35.07
2022-11-23T15:10:07.383Z,35.33
2022-11-23T15:11:40.489Z,32.97
2022-11-23T15:13:22.469Z,35.07
2022-11-23T15:14:58.499Z,34.67
2022-11-23T15:16:42.481Z,36.83
2022-11-23T15:18:28.390Z,33.60
2022-11-23T15:20:02.597Z,32.33
2022-11-23T15:21:35.988Z,33.93
2022-11-23T15:23:21.303Z,35.67
2022-11-23T15:24:54.807Z,31.00
2022-11-23T15:28:27.858Z,34.63
2022-11-23T15:30:01.579Z,34.43
2022-11-23T15:31:36.315Z,36.13
2022-11-23T15:33:12.167Z,38.80
2022-11-23T15:34:47.356Z,35.20
2022-11-23T15:36:25.467Z,37.23
2022-11-23T15:37:59.360Z,36.50
2022-11-23T15:39:32.772Z,33.33
2022-11-23T15:41:06.154Z,35.67
2022-11-23T15:42:39.446Z,35.50
2022-11-23T15:44:24.826Z,35.33
2022-11-23T15:46:05.390Z,35.37
2022-11-23T15:47:39.644Z,37.67
2022-11-23T15:49:15.601Z,37.63
2022-11-23T15:50:53.263Z,38.13
2022-11-23T15:52:30.020Z,38.30
2022-11-23T15:54:03.246Z,35.03
2022-11-23T15:55:36.600Z,39.93
2022-11-23T15:57:16.704Z,38.37
2022-11-23T15:58:50.736Z,41.80
2022-11-23T16:00:26.103Z,41.43
2022-11-23T16:02:00.979Z,38.90
2022-11-23T16:03:41.122Z,36.33
2022-11-23T16:05:15.806Z,41.47
2022-11-23T16:06:50.312Z,41.27
2022-11-23T16:08:26.346Z,43.70
2022-11-23T16:10:20.521Z,40.37
2022-11-23T16:11:53.623Z,39.90
2022-11-23T16:13:36.487Z,40.20
2022-11-23T16:15:32.476Z,40.03
2022-11-23T16:17:14.933Z,39.33
2022-11-23T16:18:52.060Z,35.03
2022-11-23T16:20:28.437Z,39.73
2022-11-23T16:22:05.442Z,39.47
2022-11-23T16:23:45.109Z,39.77
2022-11-23T16:25:25.179Z,40.10
2022-11-23T16:26:58.356Z,39.83
2022-11-23T16:28:33.345Z,38.30
2022-11-23T16:30:08.004Z,38.60
2022-11-23T16:31:42.168Z,41.33
2022-11-23T16:33:17.102Z,42.20
2022-11-23T16:34:50.178Z,40.30
2022-11-23T16:36:23.310Z,39.03
2022-11-23T16:37:57.754Z,40.83
2022-11-23T16:39:31.035Z,42.37
2022-11-23T16:41:04.349Z,37.87
2022-11-23T16:42:37.602Z,38.97
2022-11-23T16:44:10.695Z,42.73
2022-11-23T16:45:46.447Z,40.00
2022-11-23T16:47:27.410Z,43.17
2022-11-23T16:49:00.638Z,40.70
2022-11-23T16:50:35.106Z,47.13
2022-11-23T16:52:11.653Z,38.83
2022-11-23T16:54:12.374Z,41.73
2022-11-23T16:55:43.626Z,42.17
2022-11-23T16:57:35.650Z,44.33
2022-11-23T16:59:16.803Z,45.93
2022-11-23T17:00:50.221Z,45.70
2022-11-23T17:02:23.588Z,47.50
2022-11-23T17:03:56.878Z,51.27
2022-11-23T17:05:29.977Z,49.43
2022-11-23T17:07:03.108Z,45.77
2022-11-23T17:08:36.253Z,47.20
2022-11-23T17:10:11.153Z,44.50
2022-11-23T17:11:46.642Z,48.83
2022-11-23T17:13:23.143Z,48.17
2022-11-23T17:14:56.235Z,47.37
2022-11-23T17:16:30.884Z,52.97
2022-11-23T17:18:04.110Z,51.10
2022-11-23T17:19:38.495Z,45.63
2022-11-23T17:21:11.739Z,50.57
2022-11-23T17:22:45.288Z,52.10
2022-11-23T17:24:18.350Z,48.90
2022-11-23T17:25:52.776Z,53.20
2022-11-23T17:27:26.569Z,52.77
2022-11-23T17:29:02.244Z,53.73
2022-11-23T17:30:35.487Z,52.23
2022-11-23T17:32:12.184Z,50.00
2022-11-23T17:33:45.261Z,51.50
2022-11-23T17:35:18.607Z,50.07
2022-11-23T17:36:53.029Z,53.47
2022-11-23T17:38:28.123Z,52.37
2022-11-23T17:40:01.229Z,49.27
2022-11-23T17:41:35.628Z,51.87
2022-11-23T17:43:08.726Z,50.13
2022-11-23T17:44:41.979Z,51.37
2022-11-23T17:46:18.654Z,47.27
2022-11-23T17:47:51.827Z,47.10
2022-11-23T17:49:28.248Z,48.70
2022-11-23T17:51:01.392Z,46.57
2022-11-23T17:52:34.861Z,53.00
2022-11-23T17:54:08.147Z,43.90
2022-11-23T17:55:41.797Z,47.90
2022-11-23T17:57:17.632Z,51.80
2022-11-23T17:58:52.364Z,49.93
2022-11-23T18:00:25.522Z,47.90
2022-11-23T18:01:58.934Z,48.20
2022-11-23T18:03:32.078Z,49.83
2022-11-23T18:05:05.568Z,52.87
2022-11-23T18:06:38.616Z,52.27
2022-11-23T18:08:12.107Z,52.60
2022-11-23T18:09:45.173Z,51.40
2022-11-23T18:11:18.810Z,49.57
2022-11-23T18:12:53.284Z,49.67
2022-11-23T18:14:29.864Z,45.30
2022-11-23T18:16:03.412Z,51.20
2022-11-23T18:17:36.805Z,46.53
2022-11-23T18:19:09.874Z,49.40
2022-11-23T18:20:42.991Z,43.90
2022-11-23T18:22:16.274Z,49.97
2022-11-23T18:23:49.429Z,43.87
2022-11-23T18:25:22.497Z,47.47
2022-11-23T18:26:55.556Z,47.70
2022-11-23T18:28:30.675Z,48.33
2022-11-23T18:30:03.903Z,44.83
2022-11-23T18:31:37.038Z,47.90
2022-11-23T18:33:10.119Z,42.63
2022-11-23T18:34:43.238Z,47.03
2022-11-23T18:36:16.430Z,44.13
2022-11-23T18:37:49.533Z,44.83
2022-11-23T18:39:22.671Z,45.37
2022-11-23T18:40:55.939Z,46.03
2022-11-23T18:42:28.992Z,58.80
2022-11-23T18:44:03.459Z,66.93
2022-11-23T18:45:36.508Z,57.73
2022-11-23T18:47:09.668Z,52.83
2022-11-23T18:48:42.691Z,47.73
2022-11-23T18:50:15.876Z,49.63
2022-11-23T18:51:48.941Z,48.73
2022-11-23T18:53:23.101Z,51.00
2022-11-23T18:54:56.136Z,48.13
2022-11-23T18:56:29.204Z,49.87
2022-11-23T18:58:02.564Z,50.53
2022-11-23T19:01:30.360Z,51.87
2022-11-23T19:03:03.956Z,51.27
2022-11-23T19:04:38.685Z,47.83
2022-11-23T19:06:14.324Z,50.07
2022-11-23T19:07:48.045Z,48.30
2022-11-23T19:09:21.141Z,54.40
2022-11-23T19:10:54.192Z,50.13
2022-11-23T19:12:27.285Z,49.07
2022-11-23T19:14:02.288Z,54.30
2022-11-23T19:15:38.508Z,51.93
2022-11-23T19:17:11.583Z,51.93
2022-11-23T19:18:45.140Z,53.40
2022-11-23T19:20:20.452Z,53.70
2022-11-23T19:21:53.593Z,56.83
2022-11-23T19:23:29.668Z,53.53
2022-11-23T19:25:03.354Z,53.70
2022-11-23T19:26:38.206Z,53.73
2022-11-23T19:28:11.270Z,52.60
2022-11-23T19:29:44.360Z,51.73
2022-11-23T19:31:20.185Z,55.20
2022-11-23T19:32:53.312Z,54.50
2022-11-23T19:34:26.384Z,53.03
2022-11-23T19:36:06.012Z,56.47
2022-11-23T19:37:39.082Z,56.27
2022-11-23T19:39:12.239Z,51.43
2022-11-23T19:40:45.293Z,56.13
2022-11-23T19:42:18.396Z,53.90
2022-11-23T19:43:53.800Z,56.83
2022-11-23T19:45:30.302Z,56.80
2022-11-23T19:47:09.967Z,56.67
2022-11-23T19:48:47.994Z,52.83
2022-11-23T19:50:21.070Z,55.27
2022-11-23T19:51:56.136Z,53.47
2022-11-23T19:53:32.186Z,55.13
2022-11-23T19:55:08.298Z,50.93
2022-11-23T19:56:41.345Z,51.80
2022-11-23T19:58:15.331Z,52.17
2022-11-23T19:59:48.774Z,51.10
2022-11-23T20:01:24.557Z,49.80
2022-11-23T20:02:59.344Z,49.00
2022-11-23T20:04:32.800Z,53.57
2022-11-23T20:06:08.440Z,51.17
2022-11-23T20:07:41.530Z,54.30
2022-11-23T20:09:19.186Z,55.10
2022-11-23T20:10:52.512Z,48.03
2022-11-23T20:12:25.564Z,50.77
2022-11-23T20:13:59.531Z,47.40
2022-11-23T20:15:33.741Z,54.57
2022-11-23T20:17:06.791Z,51.30
2022-11-23T20:18:41.734Z,55.07
2022-11-23T20:20:14.857Z,51.70
2022-11-23T20:21:47.946Z,54.90
2022-11-23T20:23:20.981Z,51.87
2022-11-23T20:24:54.053Z,52.23
2022-11-23T20:26:27.373Z,55.47
2022-11-23T20:28:00.701Z,49.07
2022-11-23T20:29:34.021Z,53.73
2022-11-23T20:31:08.647Z,57.00
2022-11-23T20:32:41.730Z,59.33
2022-11-23T20:34:21.214Z,55.57
2022-11-23T20:35:56.044Z,53.73
2022-11-23T20:37:29.186Z,51.83
2022-11-23T20:39:03.862Z,51.63
2022-11-23T20:40:36.945Z,55.43
2022-11-23T20:42:09.998Z,53.07
2022-11-23T20:43:43.533Z,50.03
2022-11-23T20:45:16.817Z,41.37
2022-11-23T20:47:05.269Z,46.37
2022-11-23T20:48:40.487Z,43.50
2022-11-23T20:50:15.024Z,45.03
2022-11-23T20:51:48.122Z,42.27
2022-11-23T20:53:21.165Z,44.37
2022-11-23T20:54:54.247Z,45.17
2022-11-23T20:56:29.025Z,45.97
2022-11-23T20:58:02.087Z,44.53